sensor_id;sensor_type;location;lat;lon;timestamp;P1;durP1;ratioP1;P2;durP2;ratioP2
6642;SDS011;3357;48.050;7.800;2023-06-05T00:00:30;6.23;;;4.67;;
6642;SDS011;3357;48.050;7.800;2023-06-05T00:02:56;7.20;;;4.40;;
6642;SDS011;3357;48.050;7.800;2023-06-05T00:05:21;4.43;;;3.00;;
6642;SDS011;3357;48.050;7.800;2023-06-05T00:07:50;6.53;;;4.17;;
6642;SDS011;3357;48.050;7.800;2023-06-05T00:10:16;5.07;;;4.33;;
6642;SDS011;3357;48.050;7.800;2023-06-05T00:12:41;5.00;;;3.53;;
6642;SDS011;3357;48.050;7.800;2023-06-05T00:15:06;5.93;;;3.87;;
6642;SDS011;3357;48.050;7.800;2023-06-05T00:17:32;6.07;;;4.10;;
6642;SDS011;3357;48.050;7.800;2023-06-05T00:19:57;5.33;;;4.50;;
6642;SDS011;3357;48.050;7.800;2023-06-05T00:22:28;7.40;;;4.13;;
6642;SDS011;3357;48.050;7.800;2023-06-05T00:24:53;7.03;;;4.00;;
6642;SDS011;3357;48.050;7.800;2023-06-05T00:27:19;3.93;;;3.53;;
6642;SDS011;3357;48.050;7.800;2023-06-05T00:29:44;4.10;;;3.70;;
6642;SDS011;3357;48.050;7.800;2023-06-05T00:32:10;5.67;;;3.77;;
6642;SDS011;3357;48.050;7.800;2023-06-05T00:34:35;4.93;;;3.20;;
6642;SDS011;3357;48.050;7.800;2023-06-05T00:37:01;3.50;;;3.20;;
6642;SDS011;3357;48.050;7.800;2023-06-05T00:39:26;4.20;;;3.70;;
6642;SDS011;3357;48.050;7.800;2023-06-05T00:41:51;3.90;;;2.80;;
6642;SDS011;3357;48.050;7.800;2023-06-05T00:44:17;3.97;;;2.90;;
6642;SDS011;3357;48.050;7.800;2023-06-05T00:46:43;2.63;;;2.43;;
6642;SDS011;3357;48.050;7.800;2023-06-05T00:49:08;6.77;;;3.03;;
6642;SDS011;3357;48.050;7.800;2023-06-05T00:51:34;3.50;;;2.60;;
6642;SDS011;3357;48.050;7.800;2023-06-05T00:54:00;2.93;;;2.63;;
6642;SDS011;3357;48.050;7.800;2023-06-05T00:56:26;6.00;;;3.37;;
6642;SDS011;3357;48.050;7.800;2023-06-05T00:58:52;7.80;;;3.10;;
6642;SDS011;3357;48.050;7.800;2023-06-05T01:01:18;3.17;;;2.87;;
6642;SDS011;3357;48.050;7.800;2023-06-05T01:03:45;3.03;;;2.73;;
6642;SDS011;3357;48.050;7.800;2023-06-05T01:06:12;4.70;;;3.10;;
6642;SDS011;3357;48.050;7.800;2023-06-05T01:08:37;3.20;;;2.60;;
6642;SDS011;3357;48.050;7.800;2023-06-05T01:11:28;5.33;;;2.70;;
6642;SDS011;3357;48.050;7.800;2023-06-05T01:14:18;3.43;;;2.63;;
6642;SDS011;3357;48.050;7.800;2023-06-05T01:16:51;3.30;;;2.67;;
6642;SDS011;3357;48.050;7.800;2023-06-05T01:19:23;2.80;;;2.60;;
6642;SDS011;3357;48.050;7.800;2023-06-05T01:21:50;3.73;;;2.70;;
6642;SDS011;3357;48.050;7.800;2023-06-05T01:24:15;3.83;;;2.30;;
6642;SDS011;3357;48.050;7.800;2023-06-05T01:35:05;3.00;;;2.70;;
6642;SDS011;3357;48.050;7.800;2023-06-05T01:37:32;2.67;;;2.27;;
6642;SDS011;3357;48.050;7.800;2023-06-05T01:40:06;3.73;;;3.07;;
6642;SDS011;3357;48.050;7.800;2023-06-05T01:42:33;4.73;;;3.13;;
6642;SDS011;3357;48.050;7.800;2023-06-05T01:44:58;6.67;;;3.10;;
6642;SDS011;3357;48.050;7.800;2023-06-05T01:47:24;6.13;;;3.23;;
6642;SDS011;3357;48.050;7.800;2023-06-05T01:49:49;3.87;;;3.27;;
6642;SDS011;3357;48.050;7.800;2023-06-05T01:52:15;3.20;;;2.90;;
6642;SDS011;3357;48.050;7.800;2023-06-05T01:54:40;8.80;;;3.33;;
6642;SDS011;3357;48.050;7.800;2023-06-05T01:57:07;3.77;;;3.43;;
6642;SDS011;3357;48.050;7.800;2023-06-05T01:59:34;4.00;;;3.63;;
6642;SDS011;3357;48.050;7.800;2023-06-05T02:02:00;7.70;;;2.80;;
6642;SDS011;3357;48.050;7.800;2023-06-05T02:04:25;5.97;;;3.57;;
6642;SDS011;3357;48.050;7.800;2023-06-05T02:06:52;3.50;;;2.90;;
6642;SDS011;3357;48.050;7.800;2023-06-05T02:09:18;3.47;;;3.17;;
6642;SDS011;3357;48.050;7.800;2023-06-05T02:11:43;4.70;;;3.83;;
6642;SDS011;3357;48.050;7.800;2023-06-05T02:14:10;4.20;;;3.50;;
6642;SDS011;3357;48.050;7.800;2023-06-05T02:16:40;4.80;;;2.70;;
6642;SDS011;3357;48.050;7.800;2023-06-05T02:19:07;2.97;;;2.73;;
6642;SDS011;3357;48.050;7.800;2023-06-05T02:21:32;4.07;;;2.93;;
6642;SDS011;3357;48.050;7.800;2023-06-05T02:23:59;4.70;;;3.70;;
6642;SDS011;3357;48.050;7.800;2023-06-05T02:26:24;4.07;;;3.00;;
6642;SDS011;3357;48.050;7.800;2023-06-05T02:28:50;8.13;;;3.00;;
6642;SDS011;3357;48.050;7.800;2023-06-05T02:31:18;2.80;;;2.60;;
6642;SDS011;3357;48.050;7.800;2023-06-05T02:33:43;3.20;;;2.90;;
6642;SDS011;3357;48.050;7.800;2023-06-05T02:36:09;5.63;;;3.33;;
6642;SDS011;3357;48.050;7.800;2023-06-05T02:38:34;4.40;;;3.53;;
6642;SDS011;3357;48.050;7.800;2023-06-05T02:41:00;3.13;;;2.83;;
6642;SDS011;3357;48.050;7.800;2023-06-05T02:43:26;4.27;;;2.80;;
6642;SDS011;3357;48.050;7.800;2023-06-05T02:45:51;4.70;;;3.37;;
6642;SDS011;3357;48.050;7.800;2023-06-05T02:48:16;4.60;;;3.30;;
6642;SDS011;3357;48.050;7.800;2023-06-05T02:50:41;4.33;;;2.80;;
6642;SDS011;3357;48.050;7.800;2023-06-05T02:53:07;4.93;;;2.80;;
6642;SDS011;3357;48.050;7.800;2023-06-05T02:55:32;4.80;;;3.37;;
6642;SDS011;3357;48.050;7.800;2023-06-05T02:57:57;4.50;;;3.10;;
6642;SDS011;3357;48.050;7.800;2023-06-05T03:00:23;4.40;;;3.10;;
6642;SDS011;3357;48.050;7.800;2023-06-05T03:02:49;7.50;;;3.13;;
6642;SDS011;3357;48.050;7.800;2023-06-05T03:05:14;6.27;;;3.00;;
6642;SDS011;3357;48.050;7.800;2023-06-05T03:07:40;3.63;;;3.20;;
6642;SDS011;3357;48.050;7.800;2023-06-05T03:10:06;6.60;;;2.80;;
6642;SDS011;3357;48.050;7.800;2023-06-05T03:12:32;4.50;;;2.87;;
6642;SDS011;3357;48.050;7.800;2023-06-05T03:14:57;4.17;;;2.97;;
6642;SDS011;3357;48.050;7.800;2023-06-05T03:17:23;6.00;;;3.63;;
6642;SDS011;3357;48.050;7.800;2023-06-05T03:19:49;5.00;;;2.80;;
6642;SDS011;3357;48.050;7.800;2023-06-05T03:22:15;3.83;;;3.50;;
6642;SDS011;3357;48.050;7.800;2023-06-05T03:24:41;4.67;;;3.23;;
6642;SDS011;3357;48.050;7.800;2023-06-05T03:27:07;3.87;;;3.30;;
6642;SDS011;3357;48.050;7.800;2023-06-05T03:29:32;5.40;;;3.70;;
6642;SDS011;3357;48.050;7.800;2023-06-05T03:31:57;7.67;;;3.67;;
6642;SDS011;3357;48.050;7.800;2023-06-05T03:34:22;7.67;;;3.10;;
6642;SDS011;3357;48.050;7.800;2023-06-05T03:36:51;6.00;;;3.37;;
6642;SDS011;3357;48.050;7.800;2023-06-05T03:39:17;8.63;;;3.40;;
6642;SDS011;3357;48.050;7.800;2023-06-05T03:41:42;3.33;;;2.90;;
6642;SDS011;3357;48.050;7.800;2023-06-05T03:44:07;3.63;;;2.83;;
6642;SDS011;3357;48.050;7.800;2023-06-05T03:46:33;4.90;;;3.13;;
6642;SDS011;3357;48.050;7.800;2023-06-05T03:49:00;8.97;;;3.67;;
6642;SDS011;3357;48.050;7.800;2023-06-05T03:51:30;3.30;;;2.90;;
6642;SDS011;3357;48.050;7.800;2023-06-05T03:53:59;3.80;;;3.10;;
6642;SDS011;3357;48.050;7.800;2023-06-05T03:56:25;3.37;;;3.07;;
6642;SDS011;3357;48.050;7.800;2023-06-05T03:58:54;3.73;;;3.30;;
6642;SDS011;3357;48.050;7.800;2023-06-05T04:01:20;5.77;;;3.30;;
6642;SDS011;3357;48.050;7.800;2023-06-05T04:03:45;3.63;;;2.83;;
6642;SDS011;3357;48.050;7.800;2023-06-05T04:06:11;5.30;;;3.30;;
6642;SDS011;3357;48.050;7.800;2023-06-05T04:08:36;2.60;;;2.40;;
6642;SDS011;3357;48.050;7.800;2023-06-05T04:11:02;4.40;;;2.57;;
6642;SDS011;3357;48.050;7.800;2023-06-05T04:13:27;8.90;;;3.17;;
6642;SDS011;3357;48.050;7.800;2023-06-05T04:15:52;3.43;;;3.10;;
6642;SDS011;3357;48.050;7.800;2023-06-05T04:18:18;4.20;;;3.30;;
6642;SDS011;3357;48.050;7.800;2023-06-05T04:20:43;3.90;;;2.80;;
6642;SDS011;3357;48.050;7.800;2023-06-05T04:23:08;5.33;;;3.40;;
6642;SDS011;3357;48.050;7.800;2023-06-05T04:25:33;4.30;;;2.77;;
6642;SDS011;3357;48.050;7.800;2023-06-05T04:27:59;2.70;;;2.20;;
6642;SDS011;3357;48.050;7.800;2023-06-05T04:30:24;3.63;;;2.67;;
6642;SDS011;3357;48.050;7.800;2023-06-05T04:32:50;3.20;;;2.60;;
6642;SDS011;3357;48.050;7.800;2023-06-05T04:35:19;7.57;;;2.80;;
6642;SDS011;3357;48.050;7.800;2023-06-05T04:37:45;3.50;;;2.57;;
6642;SDS011;3357;48.050;7.800;2023-06-05T04:40:11;2.97;;;2.77;;
6642;SDS011;3357;48.050;7.800;2023-06-05T04:42:36;4.20;;;2.77;;
6642;SDS011;3357;48.050;7.800;2023-06-05T04:45:03;6.30;;;3.00;;
6642;SDS011;3357;48.050;7.800;2023-06-05T04:47:29;5.87;;;2.53;;
6642;SDS011;3357;48.050;7.800;2023-06-05T04:49:58;4.47;;;2.50;;
6642;SDS011;3357;48.050;7.800;2023-06-05T04:52:24;3.90;;;2.30;;
6642;SDS011;3357;48.050;7.800;2023-06-05T04:54:51;3.40;;;3.10;;
6642;SDS011;3357;48.050;7.800;2023-06-05T04:57:16;4.90;;;3.33;;
6642;SDS011;3357;48.050;7.800;2023-06-05T04:59:43;10.50;;;2.57;;
6642;SDS011;3357;48.050;7.800;2023-06-05T05:02:08;4.73;;;2.87;;
6642;SDS011;3357;48.050;7.800;2023-06-05T05:04:34;5.20;;;2.70;;
6642;SDS011;3357;48.050;7.800;2023-06-05T05:06:59;4.20;;;2.77;;
6642;SDS011;3357;48.050;7.800;2023-06-05T05:09:29;5.67;;;2.60;;
6642;SDS011;3357;48.050;7.800;2023-06-05T05:11:55;2.77;;;2.47;;
6642;SDS011;3357;48.050;7.800;2023-06-05T05:14:21;6.67;;;2.63;;
6642;SDS011;3357;48.050;7.800;2023-06-05T05:16:46;3.30;;;2.30;;
6642;SDS011;3357;48.050;7.800;2023-06-05T05:19:12;2.90;;;2.70;;
6642;SDS011;3357;48.050;7.800;2023-06-05T05:21:38;3.10;;;2.80;;
6642;SDS011;3357;48.050;7.800;2023-06-05T05:24:04;2.63;;;2.43;;
6642;SDS011;3357;48.050;7.800;2023-06-05T05:26:30;7.13;;;3.00;;
6642;SDS011;3357;48.050;7.800;2023-06-05T05:28:55;3.03;;;2.67;;
6642;SDS011;3357;48.050;7.800;2023-06-05T05:31:20;3.77;;;2.70;;
6642;SDS011;3357;48.050;7.800;2023-06-05T05:33:46;2.63;;;2.43;;
6642;SDS011;3357;48.050;7.800;2023-06-05T05:36:11;3.90;;;3.13;;
6642;SDS011;3357;48.050;7.800;2023-06-05T05:38:37;2.77;;;2.57;;
6642;SDS011;3357;48.050;7.800;2023-06-05T05:41:02;3.93;;;2.53;;
6642;SDS011;3357;48.050;7.800;2023-06-05T05:43:27;4.00;;;2.60;;
6642;SDS011;3357;48.050;7.800;2023-06-05T05:45:53;3.80;;;2.63;;
6642;SDS011;3357;48.050;7.800;2023-06-05T05:48:18;5.27;;;2.90;;
6642;SDS011;3357;48.050;7.800;2023-06-05T05:50:43;4.40;;;2.80;;
6642;SDS011;3357;48.050;7.800;2023-06-05T05:53:08;6.33;;;2.83;;
6642;SDS011;3357;48.050;7.800;2023-06-05T05:55:34;7.03;;;3.30;;
6642;SDS011;3357;48.050;7.800;2023-06-05T05:57:59;3.40;;;2.40;;
6642;SDS011;3357;48.050;7.800;2023-06-05T06:00:24;3.57;;;2.60;;
6642;SDS011;3357;48.050;7.800;2023-06-05T06:02:51;3.50;;;2.30;;
6642;SDS011;3357;48.050;7.800;2023-06-05T06:05:17;5.43;;;2.67;;
6642;SDS011;3357;48.050;7.800;2023-06-05T06:07:43;3.90;;;2.53;;
6642;SDS011;3357;48.050;7.800;2023-06-05T06:10:09;4.47;;;3.00;;
6642;SDS011;3357;48.050;7.800;2023-06-05T06:12:34;5.80;;;2.70;;
6642;SDS011;3357;48.050;7.800;2023-06-05T06:15:00;5.90;;;3.30;;
6642;SDS011;3357;48.050;7.800;2023-06-05T06:17:25;6.97;;;2.63;;
6642;SDS011;3357;48.050;7.800;2023-06-05T06:19:52;6.70;;;2.73;;
6642;SDS011;3357;48.050;7.800;2023-06-05T06:22:17;2.93;;;2.47;;
6642;SDS011;3357;48.050;7.800;2023-06-05T06:24:43;4.27;;;3.07;;
6642;SDS011;3357;48.050;7.800;2023-06-05T06:27:08;5.03;;;2.87;;
6642;SDS011;3357;48.050;7.800;2023-06-05T06:29:35;4.57;;;3.10;;
6642;SDS011;3357;48.050;7.800;2023-06-05T06:32:02;3.87;;;2.70;;
6642;SDS011;3357;48.050;7.800;2023-06-05T06:34:27;4.00;;;3.33;;
6642;SDS011;3357;48.050;7.800;2023-06-05T06:36:54;4.80;;;2.77;;
6642;SDS011;3357;48.050;7.800;2023-06-05T06:39:19;3.17;;;2.87;;
6642;SDS011;3357;48.050;7.800;2023-06-05T06:41:44;2.77;;;2.50;;
6642;SDS011;3357;48.050;7.800;2023-06-05T06:44:10;3.70;;;3.07;;
6642;SDS011;3357;48.050;7.800;2023-06-05T06:46:35;3.30;;;3.00;;
6642;SDS011;3357;48.050;7.800;2023-06-05T06:49:01;4.23;;;2.93;;
6642;SDS011;3357;48.050;7.800;2023-06-05T06:51:26;3.47;;;2.50;;
6642;SDS011;3357;48.050;7.800;2023-06-05T06:53:52;3.00;;;2.60;;
6642;SDS011;3357;48.050;7.800;2023-06-05T06:56:17;3.93;;;3.53;;
6642;SDS011;3357;48.050;7.800;2023-06-05T06:58:43;6.70;;;3.37;;
6642;SDS011;3357;48.050;7.800;2023-06-05T07:01:08;3.53;;;2.93;;
6642;SDS011;3357;48.050;7.800;2023-06-05T07:03:38;5.00;;;3.63;;
6642;SDS011;3357;48.050;7.800;2023-06-05T07:06:05;4.77;;;3.07;;
6642;SDS011;3357;48.050;7.800;2023-06-05T07:08:30;4.23;;;3.00;;
6642;SDS011;3357;48.050;7.800;2023-06-05T07:10:55;6.00;;;3.10;;
6642;SDS011;3357;48.050;7.800;2023-06-05T07:13:21;3.47;;;3.17;;
6642;SDS011;3357;48.050;7.800;2023-06-05T07:15:47;8.77;;;3.40;;
6642;SDS011;3357;48.050;7.800;2023-06-05T07:18:12;5.33;;;3.40;;
6642;SDS011;3357;48.050;7.800;2023-06-05T07:20:37;4.03;;;2.50;;
6642;SDS011;3357;48.050;7.800;2023-06-05T07:23:03;4.37;;;2.50;;
6642;SDS011;3357;48.050;7.800;2023-06-05T07:25:28;3.13;;;2.83;;
6642;SDS011;3357;48.050;7.800;2023-06-05T07:27:54;6.63;;;2.53;;
6642;SDS011;3357;48.050;7.800;2023-06-05T07:30:19;3.93;;;2.87;;
6642;SDS011;3357;48.050;7.800;2023-06-05T07:32:45;6.93;;;2.90;;
6642;SDS011;3357;48.050;7.800;2023-06-05T07:35:11;7.03;;;3.73;;
6642;SDS011;3357;48.050;7.800;2023-06-05T07:37:37;3.97;;;2.90;;
6642;SDS011;3357;48.050;7.800;2023-06-05T07:40:03;2.90;;;2.50;;
6642;SDS011;3357;48.050;7.800;2023-06-05T07:42:28;4.20;;;3.03;;
6642;SDS011;3357;48.050;7.800;2023-06-05T07:44:54;4.83;;;2.80;;
6642;SDS011;3357;48.050;7.800;2023-06-05T07:47:19;17.27;;;4.70;;
6642;SDS011;3357;48.050;7.800;2023-06-05T07:49:44;3.47;;;2.70;;
6642;SDS011;3357;48.050;7.800;2023-06-05T07:52:21;4.13;;;2.73;;
6642;SDS011;3357;48.050;7.800;2023-06-05T07:54:46;2.67;;;2.40;;
6642;SDS011;3357;48.050;7.800;2023-06-05T07:57:11;3.13;;;2.13;;
6642;SDS011;3357;48.050;7.800;2023-06-05T07:59:38;2.97;;;2.57;;
6642;SDS011;3357;48.050;7.800;2023-06-05T08:02:03;6.60;;;2.37;;
6642;SDS011;3357;48.050;7.800;2023-06-05T08:04:30;3.20;;;2.70;;
6642;SDS011;3357;48.050;7.800;2023-06-05T08:06:55;2.87;;;2.40;;
6642;SDS011;3357;48.050;7.800;2023-06-05T08:09:21;2.80;;;1.90;;
6642;SDS011;3357;48.050;7.800;2023-06-05T08:11:46;7.53;;;2.50;;
6642;SDS011;3357;48.050;7.800;2023-06-05T08:14:11;8.17;;;2.67;;
6642;SDS011;3357;48.050;7.800;2023-06-05T08:16:37;3.83;;;2.20;;
6642;SDS011;3357;48.050;7.800;2023-06-05T08:19:02;2.13;;;1.93;;
6642;SDS011;3357;48.050;7.800;2023-06-05T08:21:28;3.03;;;2.10;;
6642;SDS011;3357;48.050;7.800;2023-06-05T08:23:53;3.47;;;2.07;;
6642;SDS011;3357;48.050;7.800;2023-06-05T08:26:19;6.43;;;2.00;;
6642;SDS011;3357;48.050;7.800;2023-06-05T08:28:45;2.93;;;1.83;;
6642;SDS011;3357;48.050;7.800;2023-06-05T08:31:10;2.23;;;1.70;;
6642;SDS011;3357;48.050;7.800;2023-06-05T08:33:35;3.97;;;2.20;;
6642;SDS011;3357;48.050;7.800;2023-06-05T08:36:02;3.40;;;1.93;;
6642;SDS011;3357;48.050;7.800;2023-06-05T08:38:28;2.50;;;2.30;;
6642;SDS011;3357;48.050;7.800;2023-06-05T08:41:01;1.60;;;1.50;;
6642;SDS011;3357;48.050;7.800;2023-06-05T08:43:28;3.87;;;2.10;;
6642;SDS011;3357;48.050;7.800;2023-06-05T08:45:54;3.43;;;2.20;;
6642;SDS011;3357;48.050;7.800;2023-06-05T08:48:22;3.43;;;2.40;;
6642;SDS011;3357;48.050;7.800;2023-06-05T08:50:49;5.30;;;2.10;;
6642;SDS011;3357;48.050;7.800;2023-06-05T08:53:16;1.77;;;1.67;;
6642;SDS011;3357;48.050;7.800;2023-06-05T08:55:45;3.30;;;2.00;;
6642;SDS011;3357;48.050;7.800;2023-06-05T08:58:14;2.33;;;1.90;;
6642;SDS011;3357;48.050;7.800;2023-06-05T09:00:40;2.53;;;1.97;;
6642;SDS011;3357;48.050;7.800;2023-06-05T09:03:06;3.43;;;2.23;;
6642;SDS011;3357;48.050;7.800;2023-06-05T09:05:31;2.07;;;1.90;;
6642;SDS011;3357;48.050;7.800;2023-06-05T09:07:57;4.27;;;2.17;;
6642;SDS011;3357;48.050;7.800;2023-06-05T09:10:28;3.53;;;2.47;;
6642;SDS011;3357;48.050;7.800;2023-06-05T09:13:00;4.90;;;2.00;;
6642;SDS011;3357;48.050;7.800;2023-06-05T09:15:28;4.43;;;2.20;;
6642;SDS011;3357;48.050;7.800;2023-06-05T09:20:33;2.50;;;2.30;;
6642;SDS011;3357;48.050;7.800;2023-06-05T09:23:00;4.73;;;2.03;;
6642;SDS011;3357;48.050;7.800;2023-06-05T09:25:43;2.30;;;2.00;;
6642;SDS011;3357;48.050;7.800;2023-06-05T09:28:10;6.20;;;2.27;;
6642;SDS011;3357;48.050;7.800;2023-06-05T09:30:53;5.03;;;2.27;;
6642;SDS011;3357;48.050;7.800;2023-06-05T09:33:20;4.10;;;2.30;;
6642;SDS011;3357;48.050;7.800;2023-06-05T09:35:46;6.83;;;2.10;;
6642;SDS011;3357;48.050;7.800;2023-06-05T09:38:26;2.70;;;2.00;;
6642;SDS011;3357;48.050;7.800;2023-06-05T09:40:52;2.23;;;2.03;;
6642;SDS011;3357;48.050;7.800;2023-06-05T09:43:20;6.60;;;2.03;;
6642;SDS011;3357;48.050;7.800;2023-06-05T09:45:47;3.33;;;2.20;;
6642;SDS011;3357;48.050;7.800;2023-06-05T09:48:13;3.50;;;2.20;;
6642;SDS011;3357;48.050;7.800;2023-06-05T09:50:39;5.27;;;1.90;;
6642;SDS011;3357;48.050;7.800;2023-06-05T09:53:05;3.43;;;2.37;;
6642;SDS011;3357;48.050;7.800;2023-06-05T09:55:32;5.40;;;2.07;;
6642;SDS011;3357;48.050;7.800;2023-06-05T09:57:57;3.40;;;2.10;;
6642;SDS011;3357;48.050;7.800;2023-06-05T10:00:24;2.03;;;1.93;;
6642;SDS011;3357;48.050;7.800;2023-06-05T10:02:50;5.63;;;2.00;;
6642;SDS011;3357;48.050;7.800;2023-06-05T10:05:17;11.07;;;2.97;;
6642;SDS011;3357;48.050;7.800;2023-06-05T10:07:42;5.10;;;2.23;;
6642;SDS011;3357;48.050;7.800;2023-06-05T10:10:08;2.03;;;1.80;;
6642;SDS011;3357;48.050;7.800;2023-06-05T10:12:34;3.17;;;2.20;;
6642;SDS011;3357;48.050;7.800;2023-06-05T10:15:00;10.60;;;2.23;;
6642;SDS011;3357;48.050;7.800;2023-06-05T10:17:26;3.30;;;2.50;;
6642;SDS011;3357;48.050;7.800;2023-06-05T10:19:52;6.53;;;2.50;;
6642;SDS011;3357;48.050;7.800;2023-06-05T10:22:18;6.17;;;2.20;;
6642;SDS011;3357;48.050;7.800;2023-06-05T10:24:44;3.20;;;2.10;;
6642;SDS011;3357;48.050;7.800;2023-06-05T10:32:59;4.73;;;2.63;;
6642;SDS011;3357;48.050;7.800;2023-06-05T10:35:41;8.57;;;2.43;;
6642;SDS011;3357;48.050;7.800;2023-06-05T10:49:13;2.73;;;2.13;;
6642;SDS011;3357;48.050;7.800;2023-06-05T10:51:51;7.67;;;2.27;;
6642;SDS011;3357;48.050;7.800;2023-06-05T10:56:56;2.80;;;2.47;;
6642;SDS011;3357;48.050;7.800;2023-06-05T10:59:38;2.63;;;1.93;;
6642;SDS011;3357;48.050;7.800;2023-06-05T11:07:17;4.90;;;2.53;;
6642;SDS011;3357;48.050;7.800;2023-06-05T11:13:12;4.03;;;3.00;;
6642;SDS011;3357;48.050;7.800;2023-06-05T11:15:15;4.57;;;2.83;;
6642;SDS011;3357;48.050;7.800;2023-06-05T11:20:08;3.17;;;2.73;;
6642;SDS011;3357;48.050;7.800;2023-06-05T11:27:50;7.00;;;2.93;;
6642;SDS011;3357;48.050;7.800;2023-06-05T11:30:20;2.43;;;2.33;;
6642;SDS011;3357;48.050;7.800;2023-06-05T11:32:46;2.73;;;2.30;;
6642;SDS011;3357;48.050;7.800;2023-06-05T11:35:12;2.53;;;2.20;;
6642;SDS011;3357;48.050;7.800;2023-06-05T11:37:37;4.47;;;3.20;;
6642;SDS011;3357;48.050;7.800;2023-06-05T11:40:04;8.20;;;2.97;;
6642;SDS011;3357;48.050;7.800;2023-06-05T11:42:34;5.17;;;2.60;;
6642;SDS011;3357;48.050;7.800;2023-06-05T11:45:11;3.87;;;3.13;;
6642;SDS011;3357;48.050;7.800;2023-06-05T11:47:37;4.80;;;2.37;;
6642;SDS011;3357;48.050;7.800;2023-06-05T11:52:35;2.57;;;2.37;;
6642;SDS011;3357;48.050;7.800;2023-06-05T11:55:13;3.83;;;2.30;;
6642;SDS011;3357;48.050;7.800;2023-06-05T11:57:41;2.77;;;2.57;;
6642;SDS011;3357;48.050;7.800;2023-06-05T12:00:07;2.80;;;2.60;;
6642;SDS011;3357;48.050;7.800;2023-06-05T12:02:35;12.57;;;2.80;;
6642;SDS011;3357;48.050;7.800;2023-06-05T12:05:01;4.30;;;2.47;;
6642;SDS011;3357;48.050;7.800;2023-06-05T12:07:27;2.10;;;2.00;;
6642;SDS011;3357;48.050;7.800;2023-06-05T12:09:56;5.00;;;2.70;;
6642;SDS011;3357;48.050;7.800;2023-06-05T12:12:23;3.27;;;2.10;;
6642;SDS011;3357;48.050;7.800;2023-06-05T12:14:48;3.30;;;2.50;;
6642;SDS011;3357;48.050;7.800;2023-06-05T12:17:14;2.73;;;2.47;;
6642;SDS011;3357;48.050;7.800;2023-06-05T12:19:39;2.77;;;2.57;;
6642;SDS011;3357;48.050;7.800;2023-06-05T12:22:06;3.83;;;2.43;;
6642;SDS011;3357;48.050;7.800;2023-06-05T12:24:32;3.43;;;2.27;;
6642;SDS011;3357;48.050;7.800;2023-06-05T12:26:59;4.80;;;2.53;;
6642;SDS011;3357;48.050;7.800;2023-06-05T12:29:29;3.37;;;1.90;;
6642;SDS011;3357;48.050;7.800;2023-06-05T12:32:00;5.87;;;2.13;;
6642;SDS011;3357;48.050;7.800;2023-06-05T12:34:43;2.63;;;2.43;;
6642;SDS011;3357;48.050;7.800;2023-06-05T12:37:10;3.33;;;2.70;;
6642;SDS011;3357;48.050;7.800;2023-06-05T12:39:37;2.40;;;2.20;;
6642;SDS011;3357;48.050;7.800;2023-06-05T12:42:03;4.43;;;2.73;;
6642;SDS011;3357;48.050;7.800;2023-06-05T12:44:29;8.60;;;2.07;;
6642;SDS011;3357;48.050;7.800;2023-06-05T12:46:54;2.43;;;2.10;;
6642;SDS011;3357;48.050;7.800;2023-06-05T12:49:19;2.53;;;2.33;;
6642;SDS011;3357;48.050;7.800;2023-06-05T12:51:44;3.27;;;2.17;;
6642;SDS011;3357;48.050;7.800;2023-06-05T12:54:10;8.00;;;3.07;;
6642;SDS011;3357;48.050;7.800;2023-06-05T12:56:35;2.40;;;2.30;;
6642;SDS011;3357;48.050;7.800;2023-06-05T12:59:01;4.23;;;2.33;;
6642;SDS011;3357;48.050;7.800;2023-06-05T13:01:26;3.17;;;2.50;;
6642;SDS011;3357;48.050;7.800;2023-06-05T13:03:53;3.50;;;3.07;;
6642;SDS011;3357;48.050;7.800;2023-06-05T13:06:19;6.93;;;2.60;;
6642;SDS011;3357;48.050;7.800;2023-06-05T13:08:44;3.17;;;2.93;;
6642;SDS011;3357;48.050;7.800;2023-06-05T13:11:11;2.20;;;2.07;;
6642;SDS011;3357;48.050;7.800;2023-06-05T13:13:37;3.47;;;2.33;;
6642;SDS011;3357;48.050;7.800;2023-06-05T13:16:03;4.90;;;2.40;;
6642;SDS011;3357;48.050;7.800;2023-06-05T13:18:31;3.33;;;2.70;;
6642;SDS011;3357;48.050;7.800;2023-06-05T13:20:57;7.30;;;2.60;;
6642;SDS011;3357;48.050;7.800;2023-06-05T13:23:22;4.13;;;2.40;;
6642;SDS011;3357;48.050;7.800;2023-06-05T13:25:47;5.63;;;2.20;;
6642;SDS011;3357;48.050;7.800;2023-06-05T13:28:12;3.87;;;2.70;;
6642;SDS011;3357;48.050;7.800;2023-06-05T13:30:38;3.30;;;2.90;;
6642;SDS011;3357;48.050;7.800;2023-06-05T13:33:03;3.17;;;2.87;;
6642;SDS011;3357;48.050;7.800;2023-06-05T13:35:28;2.97;;;2.77;;
6642;SDS011;3357;48.050;7.800;2023-06-05T13:37:54;5.23;;;2.70;;
6642;SDS011;3357;48.050;7.800;2023-06-05T13:40:19;5.27;;;2.53;;
6642;SDS011;3357;48.050;7.800;2023-06-05T13:42:44;2.47;;;2.20;;
6642;SDS011;3357;48.050;7.800;2023-06-05T13:45:10;4.97;;;2.47;;
6642;SDS011;3357;48.050;7.800;2023-06-05T13:47:35;2.80;;;2.57;;
6642;SDS011;3357;48.050;7.800;2023-06-05T13:50:01;3.90;;;3.23;;
6642;SDS011;3357;48.050;7.800;2023-06-05T13:52:27;3.83;;;2.80;;
6642;SDS011;3357;48.050;7.800;2023-06-05T13:54:53;15.50;;;2.70;;
6642;SDS011;3357;48.050;7.800;2023-06-05T13:57:18;2.80;;;2.60;;
6642;SDS011;3357;48.050;7.800;2023-06-05T13:59:44;2.90;;;2.70;;
6642;SDS011;3357;48.050;7.800;2023-06-05T14:02:10;3.10;;;2.67;;
6642;SDS011;3357;48.050;7.800;2023-06-05T14:04:36;3.30;;;2.50;;
6642;SDS011;3357;48.050;7.800;2023-06-05T14:07:01;3.50;;;3.10;;
6642;SDS011;3357;48.050;7.800;2023-06-05T14:09:28;5.60;;;2.87;;
6642;SDS011;3357;48.050;7.800;2023-06-05T14:11:53;5.30;;;2.87;;
6642;SDS011;3357;48.050;7.800;2023-06-05T14:14:19;3.40;;;3.10;;
6642;SDS011;3357;48.050;7.800;2023-06-05T14:16:44;3.13;;;2.83;;
6642;SDS011;3357;48.050;7.800;2023-06-05T14:19:09;2.87;;;2.60;;
6642;SDS011;3357;48.050;7.800;2023-06-05T14:21:35;4.03;;;3.00;;
6642;SDS011;3357;48.050;7.800;2023-06-05T14:24:00;2.83;;;2.63;;
6642;SDS011;3357;48.050;7.800;2023-06-05T14:26:26;2.93;;;2.63;;
6642;SDS011;3357;48.050;7.800;2023-06-05T14:28:51;5.43;;;3.03;;
6642;SDS011;3357;48.050;7.800;2023-06-05T14:31:17;7.63;;;2.60;;
6642;SDS011;3357;48.050;7.800;2023-06-05T14:33:42;2.97;;;2.60;;
6642;SDS011;3357;48.050;7.800;2023-06-05T14:36:07;3.30;;;3.00;;
6642;SDS011;3357;48.050;7.800;2023-06-05T14:38:33;3.90;;;2.90;;
6642;SDS011;3357;48.050;7.800;2023-06-05T14:40:58;3.30;;;3.00;;
6642;SDS011;3357;48.050;7.800;2023-06-05T14:43:24;3.43;;;2.77;;
6642;SDS011;3357;48.050;7.800;2023-06-05T14:45:51;4.33;;;3.00;;
6642;SDS011;3357;48.050;7.800;2023-06-05T14:48:16;4.53;;;3.20;;
6642;SDS011;3357;48.050;7.800;2023-06-05T14:50:41;3.70;;;3.20;;
6642;SDS011;3357;48.050;7.800;2023-06-05T14:53:07;3.40;;;2.83;;
6642;SDS011;3357;48.050;7.800;2023-06-05T14:55:32;3.60;;;3.20;;
6642;SDS011;3357;48.050;7.800;2023-06-05T14:57:57;4.07;;;3.30;;
6642;SDS011;3357;48.050;7.800;2023-06-05T15:00:23;4.80;;;2.87;;
6642;SDS011;3357;48.050;7.800;2023-06-05T15:02:48;3.63;;;3.23;;
6642;SDS011;3357;48.050;7.800;2023-06-05T15:05:13;2.90;;;2.70;;
6642;SDS011;3357;48.050;7.800;2023-06-05T15:07:39;6.07;;;3.70;;
6642;SDS011;3357;48.050;7.800;2023-06-05T15:10:05;4.20;;;3.57;;
6642;SDS011;3357;48.050;7.800;2023-06-05T15:12:33;5.93;;;3.40;;
6642;SDS011;3357;48.050;7.800;2023-06-05T15:14:58;5.73;;;3.20;;
6642;SDS011;3357;48.050;7.800;2023-06-05T15:17:23;3.40;;;3.10;;
6642;SDS011;3357;48.050;7.800;2023-06-05T15:19:48;5.70;;;3.57;;
6642;SDS011;3357;48.050;7.800;2023-06-05T15:22:14;3.50;;;3.20;;
6642;SDS011;3357;48.050;7.800;2023-06-05T15:24:39;5.20;;;3.73;;
6642;SDS011;3357;48.050;7.800;2023-06-05T15:27:05;3.70;;;3.40;;
6642;SDS011;3357;48.050;7.800;2023-06-05T15:29:30;4.87;;;3.63;;
6642;SDS011;3357;48.050;7.800;2023-06-05T15:31:55;6.77;;;3.87;;
6642;SDS011;3357;48.050;7.800;2023-06-05T15:34:20;5.00;;;3.80;;
6642;SDS011;3357;48.050;7.800;2023-06-05T15:36:46;4.07;;;3.70;;
6642;SDS011;3357;48.050;7.800;2023-06-05T15:39:11;4.23;;;3.83;;
6642;SDS011;3357;48.050;7.800;2023-06-05T15:41:38;5.03;;;3.57;;
6642;SDS011;3357;48.050;7.800;2023-06-05T15:44:03;4.40;;;4.00;;
6642;SDS011;3357;48.050;7.800;2023-06-05T15:46:28;6.73;;;3.90;;
6642;SDS011;3357;48.050;7.800;2023-06-05T15:48:54;8.13;;;3.70;;
6642;SDS011;3357;48.050;7.800;2023-06-05T15:51:19;4.20;;;3.80;;
6642;SDS011;3357;48.050;7.800;2023-06-05T15:53:44;4.57;;;3.77;;
6642;SDS011;3357;48.050;7.800;2023-06-05T15:56:10;5.93;;;4.07;;
6642;SDS011;3357;48.050;7.800;2023-06-05T15:58:35;11.93;;;3.87;;